West Manchester, Ohio
Current Conditions -  °F | °C
As of 6:15 PM on Friday 31 Oct 2014 (Local Time) from KVES Reporting Station
Overcast Overcast  
Wind Chill: 34°   Ceiling: 2500
Heat Index: 39°   Visibility: 10mi
Dew Point: 37°   Wind: 8mph
Humidity: 93%   Direction: 310°NW
Pressure: 29.92"   Gusts: NA
Location:  39.9°N, 84.63°W
Report Text: KVES 312215Z AUTO 31007KT 10SM SCT016 OVC025 04/03 A2992 RMK AO2
Loading
Personal Weather Stations






























Interactive Weather Map New forecast layout! Learn more

10-Day Weather Forecast

Advertisements
Track Severe Weather on mobile